sensor_id;sensor_type;location;lat;lon;timestamp;P1;durP1;ratioP1;P2;durP2;ratioP2
55053;SDS011;40954;45.668;18.980;2022-09-03T00:00:54;7.90;;;6.82;;
55053;SDS011;40954;45.668;18.980;2022-09-03T00:03:27;8.30;;;6.68;;
55053;SDS011;40954;45.668;18.980;2022-09-03T00:06:00;9.45;;;7.07;;
55053;SDS011;40954;45.668;18.980;2022-09-03T00:08:36;7.10;;;6.43;;
55053;SDS011;40954;45.668;18.980;2022-09-03T00:11:10;7.90;;;7.10;;
55053;SDS011;40954;45.668;18.980;2022-09-03T00:13:38;6.35;;;5.75;;
55053;SDS011;40954;45.668;18.980;2022-09-03T00:16:08;9.90;;;6.43;;
55053;SDS011;40954;45.668;18.980;2022-09-03T00:18:37;7.53;;;5.13;;
55053;SDS011;40954;45.668;18.980;2022-09-03T00:21:08;6.78;;;5.90;;
55053;SDS011;40954;45.668;18.980;2022-09-03T00:23:37;7.30;;;6.10;;
55053;SDS011;40954;45.668;18.980;2022-09-03T00:28:34;7.03;;;6.03;;
55053;SDS011;40954;45.668;18.980;2022-09-03T00:31:10;6.40;;;5.80;;
55053;SDS011;40954;45.668;18.980;2022-09-03T00:33:39;7.28;;;5.90;;
55053;SDS011;40954;45.668;18.980;2022-09-03T00:38:36;6.30;;;5.65;;
55053;SDS011;40954;45.668;18.980;2022-09-03T00:56:35;6.35;;;5.75;;
55053;SDS011;40954;45.668;18.980;2022-09-03T01:06:51;6.65;;;5.72;;
55053;SDS011;40954;45.668;18.980;2022-09-03T01:12:07;8.90;;;5.82;;
55053;SDS011;40954;45.668;18.980;2022-09-03T01:30:14;6.00;;;5.50;;
55053;SDS011;40954;45.668;18.980;2022-09-03T01:35:34;5.60;;;5.00;;
55053;SDS011;40954;45.668;18.980;2022-09-03T01:48:47;4.05;;;3.67;;
55053;SDS011;40954;45.668;18.980;2022-09-03T01:51:37;6.32;;;4.95;;
55053;SDS011;40954;45.668;18.980;2022-09-03T01:56:49;6.30;;;5.57;;
55053;SDS011;40954;45.668;18.980;2022-09-03T02:01:52;6.00;;;5.43;;
55053;SDS011;40954;45.668;18.980;2022-09-03T02:04:22;6.82;;;5.95;;
55053;SDS011;40954;45.668;18.980;2022-09-03T02:06:52;6.03;;;5.53;;
55053;SDS011;40954;45.668;18.980;2022-09-03T02:09:18;5.90;;;5.30;;
55053;SDS011;40954;45.668;18.980;2022-09-03T02:11:45;10.30;;;5.60;;
55053;SDS011;40954;45.668;18.980;2022-09-03T02:14:15;6.65;;;5.97;;
55053;SDS011;40954;45.668;18.980;2022-09-03T02:16:41;9.35;;;6.28;;
55053;SDS011;40954;45.668;18.980;2022-09-03T02:19:13;7.88;;;5.22;;
55053;SDS011;40954;45.668;18.980;2022-09-03T02:24:07;8.20;;;5.88;;
55053;SDS011;40954;45.668;18.980;2022-09-03T02:26:33;6.38;;;5.70;;
55053;SDS011;40954;45.668;18.980;2022-09-03T02:29:00;5.72;;;5.22;;
55053;SDS011;40954;45.668;18.980;2022-09-03T02:31:27;6.18;;;5.65;;
55053;SDS011;40954;45.668;18.980;2022-09-03T02:33:53;6.57;;;5.88;;
55053;SDS011;40954;45.668;18.980;2022-09-03T02:36:24;6.90;;;6.20;;
55053;SDS011;40954;45.668;18.980;2022-09-03T02:38:50;6.72;;;6.13;;
55053;SDS011;40954;45.668;18.980;2022-09-03T02:41:16;9.50;;;5.50;;
55053;SDS011;40954;45.668;18.980;2022-09-03T02:46:13;6.53;;;4.60;;
55053;SDS011;40954;45.668;18.980;2022-09-03T02:48:42;6.20;;;5.38;;
55053;SDS011;40954;45.668;18.980;2022-09-03T02:51:08;8.35;;;6.80;;
55053;SDS011;40954;45.668;18.980;2022-09-03T02:53:34;22.00;;;18.05;;
55053;SDS011;40954;45.668;18.980;2022-09-03T02:56:00;9.77;;;7.55;;
55053;SDS011;40954;45.668;18.980;2022-09-03T02:58:27;12.68;;;9.63;;
55053;SDS011;40954;45.668;18.980;2022-09-03T03:00:55;12.07;;;8.75;;
55053;SDS011;40954;45.668;18.980;2022-09-03T03:03:22;10.15;;;8.90;;
55053;SDS011;40954;45.668;18.980;2022-09-03T03:05:49;13.73;;;5.85;;
55053;SDS011;40954;45.668;18.980;2022-09-03T03:08:16;7.55;;;6.40;;
55053;SDS011;40954;45.668;18.980;2022-09-03T03:10:45;9.32;;;7.43;;
55053;SDS011;40954;45.668;18.980;2022-09-03T03:13:11;8.75;;;6.63;;
55053;SDS011;40954;45.668;18.980;2022-09-03T03:15:38;8.80;;;7.40;;
55053;SDS011;40954;45.668;18.980;2022-09-03T03:18:04;8.10;;;7.30;;
55053;SDS011;40954;45.668;18.980;2022-09-03T03:20:31;9.30;;;7.00;;
55053;SDS011;40954;45.668;18.980;2022-09-03T03:23:00;7.78;;;7.00;;
55053;SDS011;40954;45.668;18.980;2022-09-03T03:25:26;8.25;;;7.47;;
55053;SDS011;40954;45.668;18.980;2022-09-03T03:27:55;15.77;;;9.07;;
55053;SDS011;40954;45.668;18.980;2022-09-03T03:30:21;11.52;;;10.48;;
55053;SDS011;40954;45.668;18.980;2022-09-03T03:32:47;10.85;;;9.77;;
55053;SDS011;40954;45.668;18.980;2022-09-03T03:35:13;10.85;;;9.75;;
55053;SDS011;40954;45.668;18.980;2022-09-03T03:37:39;10.98;;;9.70;;
55053;SDS011;40954;45.668;18.980;2022-09-03T03:40:06;9.43;;;8.55;;
55053;SDS011;40954;45.668;18.980;2022-09-03T03:42:33;9.90;;;8.98;;
55053;SDS011;40954;45.668;18.980;2022-09-03T03:44:59;9.75;;;8.70;;
55053;SDS011;40954;45.668;18.980;2022-09-03T03:47:26;8.50;;;7.80;;
55053;SDS011;40954;45.668;18.980;2022-09-03T03:49:53;8.05;;;7.35;;
55053;SDS011;40954;45.668;18.980;2022-09-03T03:52:19;7.75;;;7.05;;
55053;SDS011;40954;45.668;18.980;2022-09-03T03:54:45;7.50;;;6.82;;
55053;SDS011;40954;45.668;18.980;2022-09-03T03:57:13;6.95;;;6.25;;
55053;SDS011;40954;45.668;18.980;2022-09-03T03:59:39;7.30;;;6.45;;
55053;SDS011;40954;45.668;18.980;2022-09-03T04:02:05;11.88;;;5.78;;
55053;SDS011;40954;45.668;18.980;2022-09-03T04:04:31;26.35;;;6.63;;
55053;SDS011;40954;45.668;18.980;2022-09-03T04:06:57;13.25;;;6.80;;
55053;SDS011;40954;45.668;18.980;2022-09-03T04:09:23;7.25;;;6.65;;
55053;SDS011;40954;45.668;18.980;2022-09-03T04:11:49;5.85;;;5.35;;
55053;SDS011;40954;45.668;18.980;2022-09-03T04:14:16;6.15;;;5.65;;
55053;SDS011;40954;45.668;18.980;2022-09-03T04:16:42;6.45;;;5.85;;
55053;SDS011;40954;45.668;18.980;2022-09-03T04:19:10;5.88;;;5.38;;
55053;SDS011;40954;45.668;18.980;2022-09-03T04:21:37;6.53;;;5.93;;
55053;SDS011;40954;45.668;18.980;2022-09-03T04:24:04;5.65;;;5.15;;
55053;SDS011;40954;45.668;18.980;2022-09-03T04:26:31;5.68;;;5.18;;
55053;SDS011;40954;45.668;18.980;2022-09-03T04:28:57;5.53;;;5.10;;
55053;SDS011;40954;45.668;18.980;2022-09-03T04:31:25;5.65;;;5.15;;
55053;SDS011;40954;45.668;18.980;2022-09-03T04:33:51;5.30;;;4.90;;
55053;SDS011;40954;45.668;18.980;2022-09-03T04:36:18;5.50;;;5.00;;
55053;SDS011;40954;45.668;18.980;2022-09-03T04:38:45;6.03;;;5.53;;
55053;SDS011;40954;45.668;18.980;2022-09-03T04:41:12;4.88;;;4.45;;
55053;SDS011;40954;45.668;18.980;2022-09-03T04:43:39;5.30;;;4.90;;
55053;SDS011;40954;45.668;18.980;2022-09-03T04:46:08;4.93;;;4.47;;
55053;SDS011;40954;45.668;18.980;2022-09-03T04:48:35;5.80;;;5.10;;
55053;SDS011;40954;45.668;18.980;2022-09-03T04:51:06;5.38;;;4.55;;
55053;SDS011;40954;45.668;18.980;2022-09-03T04:53:33;25.85;;;5.38;;
55053;SDS011;40954;45.668;18.980;2022-09-03T04:55:59;7.68;;;3.95;;
55053;SDS011;40954;45.668;18.980;2022-09-03T04:58:25;25.40;;;4.50;;
55053;SDS011;40954;45.668;18.980;2022-09-03T05:00:51;12.02;;;5.32;;
55053;SDS011;40954;45.668;18.980;2022-09-03T05:03:17;6.32;;;5.72;;
55053;SDS011;40954;45.668;18.980;2022-09-03T05:05:52;16.50;;;13.13;;
55053;SDS011;40954;45.668;18.980;2022-09-03T05:08:18;4.10;;;3.75;;
55053;SDS011;40954;45.668;18.980;2022-09-03T05:10:45;22.67;;;17.70;;
55053;SDS011;40954;45.668;18.980;2022-09-03T05:13:11;4.78;;;4.30;;
55053;SDS011;40954;45.668;18.980;2022-09-03T05:15:37;8.68;;;6.80;;
55053;SDS011;40954;45.668;18.980;2022-09-03T05:18:04;5.32;;;4.82;;
55053;SDS011;40954;45.668;18.980;2022-09-03T05:20:30;4.53;;;4.13;;
55053;SDS011;40954;45.668;18.980;2022-09-03T05:22:59;4.70;;;4.35;;
55053;SDS011;40954;45.668;18.980;2022-09-03T05:25:26;14.35;;;10.93;;
55053;SDS011;40954;45.668;18.980;2022-09-03T05:27:52;4.13;;;3.83;;
55053;SDS011;40954;45.668;18.980;2022-09-03T05:30:19;5.97;;;4.72;;
55053;SDS011;40954;45.668;18.980;2022-09-03T05:32:47;6.55;;;5.75;;
55053;SDS011;40954;45.668;18.980;2022-09-03T05:35:13;3.90;;;3.60;;
55053;SDS011;40954;45.668;18.980;2022-09-03T05:37:39;8.38;;;6.88;;
55053;SDS011;40954;45.668;18.980;2022-09-03T05:40:05;3.05;;;2.85;;
55053;SDS011;40954;45.668;18.980;2022-09-03T05:42:32;7.47;;;6.18;;
55053;SDS011;40954;45.668;18.980;2022-09-03T05:45:02;3.00;;;2.78;;
55053;SDS011;40954;45.668;18.980;2022-09-03T05:47:28;4.90;;;4.32;;
55053;SDS011;40954;45.668;18.980;2022-09-03T05:49:54;5.57;;;4.97;;
55053;SDS011;40954;45.668;18.980;2022-09-03T05:52:21;2.80;;;2.60;;
55053;SDS011;40954;45.668;18.980;2022-09-03T05:54:47;3.33;;;3.08;;
55053;SDS011;40954;45.668;18.980;2022-09-03T05:57:13;10.25;;;3.60;;
55053;SDS011;40954;45.668;18.980;2022-09-03T05:59:39;3.58;;;3.28;;
55053;SDS011;40954;45.668;18.980;2022-09-03T06:02:05;4.18;;;3.88;;
55053;SDS011;40954;45.668;18.980;2022-09-03T06:04:31;3.80;;;3.50;;
55053;SDS011;40954;45.668;18.980;2022-09-03T06:06:57;4.50;;;4.10;;
55053;SDS011;40954;45.668;18.980;2022-09-03T06:09:23;4.00;;;3.33;;
55053;SDS011;40954;45.668;18.980;2022-09-03T06:11:50;3.03;;;2.67;;
55053;SDS011;40954;45.668;18.980;2022-09-03T06:14:17;4.03;;;3.72;;
55053;SDS011;40954;45.668;18.980;2022-09-03T06:16:45;4.03;;;3.63;;
55053;SDS011;40954;45.668;18.980;2022-09-03T06:19:13;3.35;;;3.15;;
55053;SDS011;40954;45.668;18.980;2022-09-03T06:21:40;4.38;;;4.00;;
55053;SDS011;40954;45.668;18.980;2022-09-03T06:24:11;4.20;;;3.80;;
55053;SDS011;40954;45.668;18.980;2022-09-03T06:26:37;4.65;;;3.22;;
55053;SDS011;40954;45.668;18.980;2022-09-03T06:29:04;5.65;;;4.45;;
55053;SDS011;40954;45.668;18.980;2022-09-03T06:31:30;4.20;;;2.03;;
55053;SDS011;40954;45.668;18.980;2022-09-03T06:33:56;4.60;;;4.20;;
55053;SDS011;40954;45.668;18.980;2022-09-03T06:36:23;4.63;;;4.28;;
55053;SDS011;40954;45.668;18.980;2022-09-03T06:38:51;4.68;;;4.28;;
55053;SDS011;40954;45.668;18.980;2022-09-03T06:41:18;2.20;;;2.10;;
55053;SDS011;40954;45.668;18.980;2022-09-03T06:43:45;5.47;;;4.97;;
55053;SDS011;40954;45.668;18.980;2022-09-03T06:46:14;7.65;;;6.95;;
55053;SDS011;40954;45.668;18.980;2022-09-03T06:48:40;6.85;;;6.25;;
55053;SDS011;40954;45.668;18.980;2022-09-03T06:51:07;2.15;;;1.98;;
55053;SDS011;40954;45.668;18.980;2022-09-03T06:53:35;3.95;;;3.65;;
55053;SDS011;40954;45.668;18.980;2022-09-03T06:56:03;2.50;;;2.30;;
55053;SDS011;40954;45.668;18.980;2022-09-03T06:58:30;2.33;;;1.95;;
55053;SDS011;40954;45.668;18.980;2022-09-03T07:01:06;6.05;;;5.35;;
55053;SDS011;40954;45.668;18.980;2022-09-03T07:03:36;4.32;;;3.92;;
55053;SDS011;40954;45.668;18.980;2022-09-03T07:06:03;4.80;;;4.35;;
55053;SDS011;40954;45.668;18.980;2022-09-03T07:08:30;4.72;;;2.75;;
55053;SDS011;40954;45.668;18.980;2022-09-03T07:11:00;9.65;;;2.30;;
55053;SDS011;40954;45.668;18.980;2022-09-03T07:13:29;3.20;;;2.90;;
55053;SDS011;40954;45.668;18.980;2022-09-03T07:15:59;2.30;;;2.10;;
55053;SDS011;40954;45.668;18.980;2022-09-03T07:18:25;2.60;;;2.22;;
55053;SDS011;40954;45.668;18.980;2022-09-03T07:20:51;2.90;;;2.70;;
55053;SDS011;40954;45.668;18.980;2022-09-03T07:23:22;6.45;;;5.57;;
55053;SDS011;40954;45.668;18.980;2022-09-03T07:25:52;5.90;;;5.35;;
55053;SDS011;40954;45.668;18.980;2022-09-03T07:28:18;6.63;;;6.00;;
55053;SDS011;40954;45.668;18.980;2022-09-03T07:30:44;6.18;;;5.55;;
55053;SDS011;40954;45.668;18.980;2022-09-03T07:33:10;6.93;;;6.32;;
55053;SDS011;40954;45.668;18.980;2022-09-03T07:35:36;2.65;;;2.45;;
55053;SDS011;40954;45.668;18.980;2022-09-03T07:38:02;2.72;;;2.53;;
55053;SDS011;40954;45.668;18.980;2022-09-03T07:40:28;2.30;;;2.10;;
55053;SDS011;40954;45.668;18.980;2022-09-03T07:42:56;3.70;;;2.75;;
55053;SDS011;40954;45.668;18.980;2022-09-03T07:45:28;6.85;;;4.93;;
55053;SDS011;40954;45.668;18.980;2022-09-03T07:47:54;3.45;;;2.60;;
55053;SDS011;40954;45.668;18.980;2022-09-03T07:50:21;4.97;;;2.65;;
55053;SDS011;40954;45.668;18.980;2022-09-03T07:52:47;6.30;;;5.65;;
55053;SDS011;40954;45.668;18.980;2022-09-03T07:55:13;4.63;;;2.85;;
55053;SDS011;40954;45.668;18.980;2022-09-03T07:57:39;5.15;;;4.75;;
55053;SDS011;40954;45.668;18.980;2022-09-03T08:00:06;4.20;;;3.75;;
55053;SDS011;40954;45.668;18.980;2022-09-03T08:02:33;4.72;;;4.28;;
55053;SDS011;40954;45.668;18.980;2022-09-03T08:04:59;3.60;;;3.30;;
55053;SDS011;40954;45.668;18.980;2022-09-03T08:07:27;3.17;;;2.95;;
55053;SDS011;40954;45.668;18.980;2022-09-03T08:09:53;3.55;;;3.25;;
55053;SDS011;40954;45.668;18.980;2022-09-03T08:12:19;2.33;;;2.22;;
55053;SDS011;40954;45.668;18.980;2022-09-03T08:14:45;6.13;;;3.50;;
55053;SDS011;40954;45.668;18.980;2022-09-03T08:17:12;4.35;;;2.55;;
55053;SDS011;40954;45.668;18.980;2022-09-03T08:19:38;4.57;;;3.58;;
55053;SDS011;40954;45.668;18.980;2022-09-03T08:22:06;4.20;;;3.78;;
55053;SDS011;40954;45.668;18.980;2022-09-03T08:24:32;2.55;;;2.35;;
55053;SDS011;40954;45.668;18.980;2022-09-03T08:26:58;4.10;;;3.80;;
55053;SDS011;40954;45.668;18.980;2022-09-03T08:29:25;3.72;;;3.45;;
55053;SDS011;40954;45.668;18.980;2022-09-03T08:31:51;3.83;;;3.53;;
55053;SDS011;40954;45.668;18.980;2022-09-03T08:34:18;2.25;;;2.03;;
55053;SDS011;40954;45.668;18.980;2022-09-03T08:36:44;3.28;;;2.90;;
55053;SDS011;40954;45.668;18.980;2022-09-03T08:39:11;2.17;;;2.08;;
55053;SDS011;40954;45.668;18.980;2022-09-03T08:54:54;2.65;;;2.13;;
55053;SDS011;40954;45.668;18.980;2022-09-03T08:57:22;3.33;;;2.30;;
55053;SDS011;40954;45.668;18.980;2022-09-03T08:59:52;4.90;;;4.47;;
55053;SDS011;40954;45.668;18.980;2022-09-03T09:02:31;8.63;;;5.43;;
55053;SDS011;40954;45.668;18.980;2022-09-03T09:07:27;5.38;;;3.78;;
55053;SDS011;40954;45.668;18.980;2022-09-03T09:10:02;7.80;;;2.70;;
55053;SDS011;40954;45.668;18.980;2022-09-03T09:17:55;4.75;;;3.22;;
55053;SDS011;40954;45.668;18.980;2022-09-03T09:20:30;8.20;;;7.15;;
55053;SDS011;40954;45.668;18.980;2022-09-03T09:23:02;4.18;;;3.85;;
55053;SDS011;40954;45.668;18.980;2022-09-03T09:25:30;4.88;;;3.13;;
55053;SDS011;40954;45.668;18.980;2022-09-03T09:28:00;3.47;;;2.95;;
55053;SDS011;40954;45.668;18.980;2022-09-03T09:30:27;4.07;;;2.72;;
55053;SDS011;40954;45.668;18.980;2022-09-03T09:32:53;5.03;;;3.50;;
55053;SDS011;40954;45.668;18.980;2022-09-03T09:35:20;3.78;;;3.47;;
55053;SDS011;40954;45.668;18.980;2022-09-03T09:37:50;4.43;;;3.50;;
55053;SDS011;40954;45.668;18.980;2022-09-03T09:42:49;3.42;;;3.00;;
55053;SDS011;40954;45.668;18.980;2022-09-03T09:45:22;4.80;;;2.85;;
55053;SDS011;40954;45.668;18.980;2022-09-03T09:47:49;4.40;;;2.83;;
55053;SDS011;40954;45.668;18.980;2022-09-03T09:50:20;4.60;;;3.17;;
55053;SDS011;40954;45.668;18.980;2022-09-03T09:52:58;3.13;;;2.83;;
55053;SDS011;40954;45.668;18.980;2022-09-03T09:55:24;3.47;;;3.17;;
55053;SDS011;40954;45.668;18.980;2022-09-03T09:57:53;5.10;;;2.95;;
55053;SDS011;40954;45.668;18.980;2022-09-03T10:00:29;3.33;;;2.90;;
55053;SDS011;40954;45.668;18.980;2022-09-03T10:02:58;2.40;;;2.20;;
55053;SDS011;40954;45.668;18.980;2022-09-03T10:05:24;2.55;;;2.35;;
55053;SDS011;40954;45.668;18.980;2022-09-03T10:08:33;3.88;;;2.67;;
55053;SDS011;40954;45.668;18.980;2022-09-03T10:10:42;5.65;;;2.63;;
55053;SDS011;40954;45.668;18.980;2022-09-03T10:13:11;2.70;;;2.50;;
55053;SDS011;40954;45.668;18.980;2022-09-03T10:15:49;2.63;;;2.42;;
55053;SDS011;40954;45.668;18.980;2022-09-03T10:18:18;4.78;;;2.35;;
55053;SDS011;40954;45.668;18.980;2022-09-03T10:23:58;5.47;;;2.75;;
55053;SDS011;40954;45.668;18.980;2022-09-03T10:26:21;4.70;;;3.33;;
55053;SDS011;40954;45.668;18.980;2022-09-03T10:29:01;4.63;;;3.13;;
55053;SDS011;40954;45.668;18.980;2022-09-03T10:39:09;5.35;;;2.55;;
55053;SDS011;40954;45.668;18.980;2022-09-03T10:49:50;21.17;;;3.05;;
55053;SDS011;40954;45.668;18.980;2022-09-03T10:52:09;7.43;;;2.60;;
55053;SDS011;40954;45.668;18.980;2022-09-03T10:55:19;27.58;;;3.95;;
55053;SDS011;40954;45.668;18.980;2022-09-03T11:00:04;8.68;;;3.20;;
55053;SDS011;40954;45.668;18.980;2022-09-03T11:08:22;5.10;;;2.80;;
55053;SDS011;40954;45.668;18.980;2022-09-03T11:10:31;6.70;;;2.83;;
55053;SDS011;40954;45.668;18.980;2022-09-03T11:15:44;5.18;;;2.40;;
55053;SDS011;40954;45.668;18.980;2022-09-03T11:20:39;3.45;;;2.58;;
55053;SDS011;40954;45.668;18.980;2022-09-03T11:23:07;2.75;;;2.40;;
55053;SDS011;40954;45.668;18.980;2022-09-03T11:25:36;5.18;;;2.53;;
55053;SDS011;40954;45.668;18.980;2022-09-03T11:33:08;2.85;;;2.58;;
55053;SDS011;40954;45.668;18.980;2022-09-03T11:38:02;4.28;;;2.40;;
55053;SDS011;40954;45.668;18.980;2022-09-03T11:40:35;3.10;;;2.30;;
55053;SDS011;40954;45.668;18.980;2022-09-03T11:47:58;2.88;;;2.42;;
55053;SDS011;40954;45.668;18.980;2022-09-03T11:50:25;3.08;;;2.63;;
55053;SDS011;40954;45.668;18.980;2022-09-03T11:52:53;2.42;;;2.22;;
55053;SDS011;40954;45.668;18.980;2022-09-03T11:55:26;4.65;;;2.60;;
55053;SDS011;40954;45.668;18.980;2022-09-03T11:57:54;6.32;;;2.40;;
55053;SDS011;40954;45.668;18.980;2022-09-03T12:00:21;9.13;;;3.03;;
55053;SDS011;40954;45.668;18.980;2022-09-03T12:02:49;3.67;;;2.67;;
55053;SDS011;40954;45.668;18.980;2022-09-03T12:05:21;2.67;;;2.35;;
55053;SDS011;40954;45.668;18.980;2022-09-03T12:18:22;2.47;;;2.03;;
55053;SDS011;40954;45.668;18.980;2022-09-03T12:23:27;2.75;;;2.10;;
55053;SDS011;40954;45.668;18.980;2022-09-03T12:25:53;4.05;;;2.25;;
55053;SDS011;40954;45.668;18.980;2022-09-03T12:28:23;2.53;;;2.30;;
55053;SDS011;40954;45.668;18.980;2022-09-03T12:30:51;2.72;;;2.35;;
55053;SDS011;40954;45.668;18.980;2022-09-03T12:33:20;5.72;;;3.00;;
55053;SDS011;40954;45.668;18.980;2022-09-03T12:35:57;2.50;;;2.30;;
55053;SDS011;40954;45.668;18.980;2022-09-03T12:38:23;1.90;;;1.80;;
55053;SDS011;40954;45.668;18.980;2022-09-03T12:40:50;1.98;;;1.88;;
55053;SDS011;40954;45.668;18.980;2022-09-03T12:43:16;2.45;;;2.25;;
55053;SDS011;40954;45.668;18.980;2022-09-03T12:45:43;2.42;;;2.22;;
55053;SDS011;40954;45.668;18.980;2022-09-03T12:48:16;2.17;;;1.98;;
55053;SDS011;40954;45.668;18.980;2022-09-03T12:50:44;4.22;;;2.45;;
55053;SDS011;40954;45.668;18.980;2022-09-03T12:53:20;2.72;;;2.53;;
55053;SDS011;40954;45.668;18.980;2022-09-03T12:55:48;2.50;;;2.30;;
55053;SDS011;40954;45.668;18.980;2022-09-03T13:00:57;4.63;;;2.60;;
55053;SDS011;40954;45.668;18.980;2022-09-03T13:03:33;2.72;;;2.53;;
55053;SDS011;40954;45.668;18.980;2022-09-03T13:06:07;3.10;;;2.00;;
55053;SDS011;40954;45.668;18.980;2022-09-03T13:08:40;2.35;;;2.15;;
55053;SDS011;40954;45.668;18.980;2022-09-03T13:11:09;4.30;;;2.78;;
55053;SDS011;40954;45.668;18.980;2022-09-03T13:13:35;3.53;;;2.38;;
55053;SDS011;40954;45.668;18.980;2022-09-03T13:16:11;2.72;;;2.53;;
55053;SDS011;40954;45.668;18.980;2022-09-03T13:18:45;4.07;;;2.50;;
55053;SDS011;40954;45.668;18.980;2022-09-03T13:24:01;3.92;;;2.95;;
55053;SDS011;40954;45.668;18.980;2022-09-03T13:36:40;3.25;;;2.95;;
55053;SDS011;40954;45.668;18.980;2022-09-03T13:39:27;5.95;;;2.80;;
55053;SDS011;40954;45.668;18.980;2022-09-03T13:44:55;4.22;;;2.55;;
55053;SDS011;40954;45.668;18.980;2022-09-03T13:47:28;5.40;;;2.80;;
55053;SDS011;40954;45.668;18.980;2022-09-03T13:52:45;6.40;;;2.70;;
55053;SDS011;40954;45.668;18.980;2022-09-03T14:06:01;7.80;;;4.63;;
55053;SDS011;40954;45.668;18.980;2022-09-03T14:08:34;2.20;;;2.08;;
55053;SDS011;40954;45.668;18.980;2022-09-03T14:13:52;7.03;;;3.13;;
55053;SDS011;40954;45.668;18.980;2022-09-03T14:16:41;10.02;;;3.08;;
55053;SDS011;40954;45.668;18.980;2022-09-03T14:19:18;6.45;;;2.50;;
55053;SDS011;40954;45.668;18.980;2022-09-03T14:21:50;12.27;;;3.72;;
55053;SDS011;40954;45.668;18.980;2022-09-03T14:24:22;9.70;;;4.30;;
55053;SDS011;40954;45.668;18.980;2022-09-03T14:26:50;10.95;;;5.70;;
55053;SDS011;40954;45.668;18.980;2022-09-03T14:29:17;12.18;;;5.95;;
55053;SDS011;40954;45.668;18.980;2022-09-03T14:39:48;12.85;;;10.48;;
55053;SDS011;40954;45.668;18.980;2022-09-03T14:47:41;24.85;;;16.95;;
55053;SDS011;40954;45.668;18.980;2022-09-03T15:05:47;11.88;;;9.25;;
55053;SDS011;40954;45.668;18.980;2022-09-03T15:11:01;33.08;;;19.70;;
55053;SDS011;40954;45.668;18.980;2022-09-03T15:19:06;36.03;;;19.65;;
55053;SDS011;40954;45.668;18.980;2022-09-03T15:36:57;40.53;;;22.38;;
55053;SDS011;40954;45.668;18.980;2022-09-03T15:39:25;33.45;;;21.05;;
55053;SDS011;40954;45.668;18.980;2022-09-03T15:41:57;24.60;;;16.40;;
55053;SDS011;40954;45.668;18.980;2022-09-03T15:44:24;6.10;;;4.15;;
55053;SDS011;40954;45.668;18.980;2022-09-03T15:46:58;8.90;;;5.00;;
55053;SDS011;40954;45.668;18.980;2022-09-03T15:49:30;25.95;;;19.40;;
55053;SDS011;40954;45.668;18.980;2022-09-03T15:54:34;15.85;;;12.98;;
55053;SDS011;40954;45.668;18.980;2022-09-03T15:57:16;21.42;;;13.55;;
55053;SDS011;40954;45.668;18.980;2022-09-03T16:02:14;22.55;;;15.23;;
55053;SDS011;40954;45.668;18.980;2022-09-03T16:04:49;20.00;;;14.18;;
55053;SDS011;40954;45.668;18.980;2022-09-03T16:15:22;21.20;;;16.05;;
55053;SDS011;40954;45.668;18.980;2022-09-03T16:17:55;22.40;;;15.25;;
55053;SDS011;40954;45.668;18.980;2022-09-03T16:25:28;3.58;;;3.03;;
55053;SDS011;40954;45.668;18.980;2022-09-03T16:36:01;4.40;;;3.65;;
55053;SDS011;40954;45.668;18.980;2022-09-03T16:41:19;21.77;;;11.20;;
55053;SDS011;40954;45.668;18.980;2022-09-03T16:46:24;4.97;;;4.00;;
55053;SDS011;40954;45.668;18.980;2022-09-03T16:49:05;3.33;;;3.03;;
55053;SDS011;40954;45.668;18.980;2022-09-03T16:51:42;4.57;;;3.60;;
55053;SDS011;40954;45.668;18.980;2022-09-03T16:54:16;7.15;;;4.13;;
55053;SDS011;40954;45.668;18.980;2022-09-03T17:01:59;5.07;;;3.70;;
55053;SDS011;40954;45.668;18.980;2022-09-03T17:12:13;8.15;;;4.85;;
55053;SDS011;40954;45.668;18.980;2022-09-03T17:14:51;8.35;;;4.43;;
55053;SDS011;40954;45.668;18.980;2022-09-03T17:20:13;6.45;;;4.35;;
55053;SDS011;40954;45.668;18.980;2022-09-03T17:28:16;15.10;;;8.25;;
55053;SDS011;40954;45.668;18.980;2022-09-03T17:33:54;6.40;;;4.50;;
55053;SDS011;40954;45.668;18.980;2022-09-03T17:36:23;7.35;;;4.43;;
55053;SDS011;40954;45.668;18.980;2022-09-03T17:41:24;6.00;;;4.30;;
55053;SDS011;40954;45.668;18.980;2022-09-03T17:43:55;6.80;;;4.63;;
55053;SDS011;40954;45.668;18.980;2022-09-03T17:46:29;16.15;;;7.30;;
55053;SDS011;40954;45.668;18.980;2022-09-03T17:48:59;9.25;;;6.85;;
55053;SDS011;40954;45.668;18.980;2022-09-03T17:51:30;11.48;;;7.90;;
55053;SDS011;40954;45.668;18.980;2022-09-03T17:54:05;9.85;;;7.78;;
55053;SDS011;40954;45.668;18.980;2022-09-03T17:56:40;7.80;;;6.32;;
55053;SDS011;40954;45.668;18.980;2022-09-03T17:59:30;7.75;;;6.25;;
55053;SDS011;40954;45.668;18.980;2022-09-03T18:02:07;12.25;;;8.32;;
55053;SDS011;40954;45.668;18.980;2022-09-03T18:04:58;12.77;;;8.13;;
55053;SDS011;40954;45.668;18.980;2022-09-03T18:12:18;10.73;;;5.20;;
55053;SDS011;40954;45.668;18.980;2022-09-03T18:20:18;6.47;;;4.43;;
55053;SDS011;40954;45.668;18.980;2022-09-03T18:23:09;26.60;;;7.20;;
55053;SDS011;40954;45.668;18.980;2022-09-03T18:26:02;11.25;;;7.10;;
55053;SDS011;40954;45.668;18.980;2022-09-03T18:28:54;12.45;;;6.57;;
55053;SDS011;40954;45.668;18.980;2022-09-03T18:31:42;9.30;;;6.18;;
55053;SDS011;40954;45.668;18.980;2022-09-03T18:34:29;5.80;;;4.18;;
55053;SDS011;40954;45.668;18.980;2022-09-03T18:37:21;12.60;;;6.32;;
55053;SDS011;40954;45.668;18.980;2022-09-03T18:42:55;6.50;;;4.22;;
55053;SDS011;40954;45.668;18.980;2022-09-03T18:45:48;4.78;;;4.30;;
55053;SDS011;40954;45.668;18.980;2022-09-03T18:48:35;6.03;;;4.90;;
55053;SDS011;40954;45.668;18.980;2022-09-03T18:51:25;12.32;;;8.20;;
55053;SDS011;40954;45.668;18.980;2022-09-03T18:54:19;10.88;;;6.75;;
55053;SDS011;40954;45.668;18.980;2022-09-03T18:57:08;25.70;;;20.83;;
55053;SDS011;40954;45.668;18.980;2022-09-03T19:00:03;12.02;;;8.82;;
55053;SDS011;40954;45.668;18.980;2022-09-03T19:02:59;10.48;;;9.27;;
55053;SDS011;40954;45.668;18.980;2022-09-03T19:20:28;24.98;;;18.20;;
55053;SDS011;40954;45.668;18.980;2022-09-03T19:23:14;28.98;;;16.90;;
55053;SDS011;40954;45.668;18.980;2022-09-03T19:26:20;23.77;;;15.30;;
55053;SDS011;40954;45.668;18.980;2022-09-03T19:29:09;24.00;;;10.68;;
55053;SDS011;40954;45.668;18.980;2022-09-03T19:37:36;20.08;;;13.23;;
55053;SDS011;40954;45.668;18.980;2022-09-03T19:40:37;15.05;;;12.00;;
55053;SDS011;40954;45.668;18.980;2022-09-03T19:54:55;11.60;;;9.77;;
55053;SDS011;40954;45.668;18.980;2022-09-03T19:57:41;13.55;;;10.02;;
55053;SDS011;40954;45.668;18.980;2022-09-03T20:00:27;12.65;;;8.98;;
55053;SDS011;40954;45.668;18.980;2022-09-03T20:03:12;11.73;;;8.77;;
55053;SDS011;40954;45.668;18.980;2022-09-03T20:05:58;6.50;;;4.95;;
55053;SDS011;40954;45.668;18.980;2022-09-03T20:08:46;8.32;;;6.32;;
55053;SDS011;40954;45.668;18.980;2022-09-03T20:11:31;12.20;;;8.23;;
55053;SDS011;40954;45.668;18.980;2022-09-03T20:13:57;15.25;;;7.82;;
55053;SDS011;40954;45.668;18.980;2022-09-03T20:40:28;11.38;;;6.65;;
55053;SDS011;40954;45.668;18.980;2022-09-03T20:43:05;8.88;;;7.95;;
55053;SDS011;40954;45.668;18.980;2022-09-03T20:45:36;9.30;;;5.85;;
55053;SDS011;40954;45.668;18.980;2022-09-03T20:50:43;9.30;;;7.10;;
55053;SDS011;40954;45.668;18.980;2022-09-03T20:56:02;7.95;;;6.32;;
55053;SDS011;40954;45.668;18.980;2022-09-03T20:58:37;25.30;;;8.93;;
55053;SDS011;40954;45.668;18.980;2022-09-03T21:01:42;13.65;;;7.63;;
55053;SDS011;40954;45.668;18.980;2022-09-03T21:06:30;11.10;;;8.32;;